Time;durP1;ratioP1;P1;durP2;ratioP2;P2;SDS_P1;SDS_P2;PMS_P1;PMS_P2;Temp;Humidity;BMP_temperature;BMP_pressure;BME280_temperature;BME280_humidity;BME280_pressure;Samples;Min_cycle;Max_cycle;Signal;HPM_P1;HPM_P2
2023/04/26 00:02:03;;;;;;;10.80;8.38;;;;;;;9.57;66.55;98465.09;4361859;32;34859;-86
2023/04/26 00:04:32;;;;;;;11.45;8.38;;;;;;;9.61;65.63;98460.78;4366663;32;34447;-84
2023/04/26 00:07:00;;;;;;;13.35;9.35;;;;;;;9.38;67.01;98453.75;4376883;32;34600;-90
2023/04/26 00:09:28;;;;;;;10.43;8.60;;;;;;;9.12;68.24;98469.09;4376839;32;33730;-83
2023/04/26 00:11:56;;;;;;;14.38;8.68;;;;;;;9.23;68.13;98467.47;4376487;32;33981;-88
2023/04/26 00:14:23;;;;;;;11.73;8.93;;;;;;;9.33;67.69;98476.16;4377287;32;34108;-90
2023/04/26 00:16:51;;;;;;;11.55;8.30;;;;;;;9.34;67.64;98469.25;4377329;32;34256;-91
2023/04/26 00:19:18;;;;;;;9.93;8.13;;;;;;;9.51;66.87;98475.41;4376046;32;34650;-87
2023/04/26 00:21:46;;;;;;;10.52;8.40;;;;;;;9.79;65.94;98473.81;4376763;32;33966;-89
2023/04/26 00:24:13;;;;;;;10.52;8.68;;;;;;;9.31;67.65;98482.16;4362118;32;34071;-84
2023/04/26 00:26:41;;;;;;;10.23;8.20;;;;;;;9.56;66.84;98478.03;4361572;32;33854;-82
2023/04/26 00:29:08;;;;;;;10.75;8.38;;;;;;;9.54;66.73;98482.31;4370067;32;33434;-87
2023/04/26 00:31:36;;;;;;;11.45;9.00;;;;;;;9.11;68.58;98488.06;4361767;32;33861;-89
2023/04/26 00:34:04;;;;;;;9.95;8.43;;;;;;;8.96;69.06;98485.34;4336003;32;34892;-90
2023/04/26 00:36:31;;;;;;;10.23;7.47;;;;;;;9.29;67.59;98491.66;4361883;32;34598;-91
2023/04/26 00:38:59;;;;;;;10.73;8.10;;;;;;;9.43;67.08;98490.00;4361665;32;33515;-89
2023/04/26 00:41:27;;;;;;;10.35;7.90;;;;;;;9.52;66.43;98490.06;4361135;32;34614;-82
2023/04/26 00:43:55;;;;;;;15.07;8.07;;;;;;;9.44;66.47;98499.53;4371622;32;34847;-89
2023/04/26 00:46:22;;;;;;;10.50;8.05;;;;;;;9.16;67.74;98501.03;4347899;32;33672;-88
2023/04/26 00:48:50;;;;;;;12.68;8.40;;;;;;;9.47;66.59;98507.28;4361640;32;33745;-88
2023/04/26 00:51:18;;;;;;;11.27;7.95;;;;;;;8.94;68.35;98499.97;4363328;32;33926;-88
2023/04/26 00:53:46;;;;;;;9.75;7.35;;;;;;;9.08;67.91;98500.09;4353984;32;33769;-86
2023/04/26 00:56:15;;;;;;;10.85;7.62;;;;;;;8.96;68.53;98501.72;4361119;32;34712;-82
2023/04/26 00:58:43;;;;;;;10.27;8.25;;;;;;;9.18;67.39;98502.78;4363222;32;34485;-91
2023/04/26 01:01:12;;;;;;;11.93;7.60;;;;;;;9.26;67.38;98495.06;4376412;32;33574;-82
2023/04/26 01:03:41;;;;;;;9.93;7.90;;;;;;;9.22;67.36;98501.94;4362861;32;35602;-82
2023/04/26 01:06:11;;;;;;;10.77;7.85;;;;;;;9.99;64.16;98507.56;4348125;32;34873;-83
2023/04/26 01:08:38;;;;;;;11.95;7.95;;;;;;;9.59;65.05;98509.09;4369998;32;34463;-91
2023/04/26 01:11:06;;;;;;;9.75;7.65;;;;;;;9.31;66.30;98513.22;4375460;32;34409;-83
2023/04/26 01:13:35;;;;;;;10.18;7.87;;;;;;;9.11;67.07;98511.34;4376421;32;34946;-87
2023/04/26 01:16:03;;;;;;;10.52;8.75;;;;;;;9.17;67.00;98513.13;4372641;32;34018;-82
2023/04/26 01:18:31;;;;;;;11.30;8.63;;;;;;;9.30;66.41;98511.47;4361418;32;34325;-89
2023/04/26 01:20:59;;;;;;;10.60;8.30;;;;;;;8.79;67.80;98513.66;4368228;32;34885;-84
2023/04/26 01:23:30;;;;;;;11.43;8.65;;;;;;;9.04;67.04;98516.44;4336997;32;34161;-87
2023/04/26 01:25:58;;;;;;;10.57;8.05;;;;;;;9.13;66.81;98514.81;4361347;32;34178;-83
2023/04/26 01:28:25;;;;;;;9.57;7.87;;;;;;;9.19;66.24;98511.41;4361706;32;33608;-89
2023/04/26 01:30:53;;;;;;;10.93;7.70;;;;;;;9.01;66.95;98523.31;4361276;32;33669;-83
2023/04/26 01:33:20;;;;;;;10.05;7.62;;;;;;;9.09;66.87;98523.41;4361350;32;35071;-83
2023/04/26 01:35:48;;;;;;;10.95;8.73;;;;;;;9.09;66.86;98532.84;4363983;32;34808;-89
2023/04/26 01:38:16;;;;;;;10.20;7.95;;;;;;;9.00;67.00;98533.66;4368275;32;33818;-89
2023/04/26 01:40:48;;;;;;;11.05;8.48;;;;;;;8.86;67.75;98537.81;4376076;32;33885;-82
2023/04/26 01:43:18;;;;;;;9.68;8.25;;;;;;;9.05;66.85;98526.78;4362578;32;34814;-82
2023/04/26 01:45:49;;;;;;;9.75;7.72;;;;;;;8.90;67.37;98534.41;4375556;32;36570;-87
2023/04/26 01:48:28;;;;;;;10.32;8.05;;;;;;;8.85;66.60;98541.28;4376419;32;33657;-85
2023/04/26 01:50:56;;;;;;;10.65;7.80;;;;;;;8.89;66.77;98536.13;4367148;32;33234;-87
2023/04/26 01:53:23;;;;;;;8.98;7.25;;;;;;;8.63;67.14;98537.59;4367091;32;33744;-91
2023/04/26 01:55:51;;;;;;;10.35;8.70;;;;;;;8.47;68.03;98540.03;4362133;32;34205;-89
2023/04/26 01:58:18;;;;;;;12.13;8.35;;;;;;;8.71;67.17;98542.00;4361693;32;33821;-91
2023/04/26 02:00:46;;;;;;;10.13;7.90;;;;;;;8.94;66.46;98543.94;4369082;32;33851;-88
2023/04/26 02:03:14;;;;;;;11.55;7.22;;;;;;;8.74;66.87;98554.06;4371740;32;34894;-87
2023/04/26 02:05:45;;;;;;;9.30;7.97;;;;;;;9.04;65.81;98550.91;4360685;32;33910;-86
2023/04/26 02:08:13;;;;;;;14.02;8.27;;;;;;;8.57;67.65;98548.75;4371538;32;33463;-92
2023/04/26 02:10:40;;;;;;;9.32;7.87;;;;;;;8.82;67.38;98555.03;4361011;32;33705;-92
2023/04/26 02:13:08;;;;;;;10.02;7.72;;;;;;;8.93;66.13;98552.53;4364956;32;34143;-89
2023/04/26 02:15:38;;;;;;;11.32;7.75;;;;;;;9.14;65.89;98551.88;4374372;32;34081;-92
2023/04/26 02:18:06;;;;;;;9.48;7.35;;;;;;;9.13;65.45;98556.19;4373725;32;33779;-91
2023/04/26 02:20:35;;;;;;;10.00;7.43;;;;;;;9.04;65.94;98552.66;4367154;32;33995;-82
2023/04/26 02:23:03;;;;;;;9.38;7.57;;;;;;;8.82;66.29;98560.19;4366539;32;35389;-89
2023/04/26 02:25:31;;;;;;;8.85;7.15;;;;;;;9.02;65.66;98557.81;4373885;32;34492;-89
2023/04/26 02:27:58;;;;;;;10.20;7.87;;;;;;;8.93;65.34;98552.53;4371004;32;33773;-82
2023/04/26 02:30:27;;;;;;;9.70;8.05;;;;;;;8.63;66.63;98553.97;4361634;32;34578;-90
2023/04/26 02:32:55;;;;;;;10.18;7.82;;;;;;;8.54;67.15;98556.47;4360937;32;35108;-82
2023/04/26 02:35:23;;;;;;;10.07;7.70;;;;;;;8.73;66.38;98563.56;4365295;32;34179;-83
2023/04/26 02:37:51;;;;;;;11.18;8.18;;;;;;;8.84;66.15;98561.09;4368568;32;33461;-84
2023/04/26 02:40:18;;;;;;;12.25;8.02;;;;;;;9.01;65.51;98567.25;4360523;32;33711;-82
2023/04/26 02:42:47;;;;;;;9.68;7.62;;;;;;;9.08;65.26;98557.84;4367270;32;34167;-84
2023/04/26 02:45:15;;;;;;;10.25;7.50;;;;;;;8.84;66.15;98555.91;4372197;32;34302;-83
2023/04/26 02:47:42;;;;;;;11.50;8.30;;;;;;;8.79;66.44;98555.00;4358983;32;33148;-87
2023/04/26 02:50:10;;;;;;;9.38;8.00;;;;;;;8.76;65.74;98550.66;4375134;32;34794;-90
2023/04/26 02:52:38;;;;;;;10.63;7.72;;;;;;;9.04;64.80;98566.44;4374804;32;34303;-88
2023/04/26 02:55:06;;;;;;;11.68;7.30;;;;;;;8.52;66.83;98560.72;4375229;32;34217;-88
2023/04/26 02:57:33;;;;;;;11.63;8.73;;;;;;;8.42;66.90;98556.34;4367012;32;33765;-83
2023/04/26 03:00:01;;;;;;;14.60;9.52;;;;;;;8.34;67.51;98571.69;4373938;32;34321;-87
2023/04/26 03:02:28;;;;;;;10.43;8.45;;;;;;;8.14;68.41;98574.00;4363609;32;34641;-86
2023/04/26 03:04:57;;;;;;;12.45;9.13;;;;;;;8.00;68.67;98575.56;4365825;32;34860;-88
2023/04/26 03:07:25;;;;;;;11.07;9.00;;;;;;;8.15;68.60;98580.94;4360450;32;33516;-91
2023/04/26 03:09:52;;;;;;;12.25;9.15;;;;;;;8.08;69.00;98601.50;4362585;32;33635;-89
2023/04/26 03:12:20;;;;;;;13.60;10.00;;;;;;;8.43;67.39;98595.09;4369888;32;35058;-93
2023/04/26 03:14:48;;;;;;;13.60;10.05;;;;;;;8.27;68.35;98596.56;4372104;32;34298;-83
2023/04/26 03:17:16;;;;;;;13.93;10.27;;;;;;;8.43;67.78;98599.37;4359320;32;33672;-87
2023/04/26 03:19:44;;;;;;;13.30;10.40;;;;;;;8.17;68.71;98610.22;4361964;32;34213;-87
2023/04/26 03:22:14;;;;;;;14.38;10.13;;;;;;;8.37;68.34;98605.34;4370405;32;34118;-91
2023/04/26 03:24:43;;;;;;;15.93;10.90;;;;;;;8.20;68.93;98615.41;4369956;32;34069;-83
2023/04/26 03:27:11;;;;;;;12.60;10.40;;;;;;;7.78;70.27;98620.84;4373072;32;34758;-82
2023/04/26 03:29:38;;;;;;;14.00;11.10;;;;;;;7.97;69.81;98619.41;4372196;32;33916;-90
2023/04/26 03:32:07;;;;;;;14.85;10.38;;;;;;;8.38;68.44;98612.25;4361925;32;34650;-90
2023/04/26 03:34:37;;;;;;;14.80;10.23;;;;;;;8.32;68.32;98624.19;4355264;32;32648;-85
2023/04/26 03:37:05;;;;;;;12.95;10.65;;;;;;;7.90;69.77;98626.19;4372984;32;33782;-84
2023/04/26 03:39:32;;;;;;;13.75;11.38;;;;;;;8.12;68.49;98617.03;4362496;32;35120;-90
2023/04/26 03:42:00;;;;;;;13.07;11.27;;;;;;;8.32;67.95;98629.34;4363133;32;33841;-83
2023/04/26 03:44:28;;;;;;;14.15;11.38;;;;;;;8.38;67.78;98629.47;4374108;32;34273;-87
2023/04/26 03:46:57;;;;;;;12.73;10.30;;;;;;;7.87;69.02;98638.19;4371973;32;34459;-89
2023/04/26 03:49:25;;;;;;;11.75;10.07;;;;;;;8.08;68.28;98633.34;4372285;32;33927;-89
2023/04/26 03:51:54;;;;;;;13.85;10.45;;;;;;;8.47;66.93;98620.09;4371123;32;33909;-89
2023/04/26 03:54:22;;;;;;;13.45;10.18;;;;;;;8.53;66.20;98624.50;4367419;32;34610;-84
2023/04/26 03:56:50;;;;;;;14.55;10.35;;;;;;;8.41;66.97;98650.16;4360975;32;33360;-90
2023/04/26 03:59:18;;;;;;;12.48;9.52;;;;;;;8.65;65.71;98634.97;4367183;32;33782;-90
2023/04/26 04:01:47;;;;;;;11.12;9.20;;;;;;;8.87;64.30;98637.81;4348800;32;35009;-83
2023/04/26 04:04:14;;;;;;;13.70;9.43;;;;;;;8.57;65.08;98636.59;4345660;32;33885;-83
2023/04/26 04:06:46;;;;;;;12.15;9.60;;;;;;;8.75;64.43;98639.41;4370731;32;34603;-89
2023/04/26 04:09:13;;;;;;;14.15;9.73;;;;;;;8.95;64.12;98646.50;4371094;32;34709;-89
2023/04/26 04:11:41;;;;;;;17.52;10.65;;;;;;;8.83;64.08;98643.78;4372276;32;34221;-88
2023/04/26 04:14:09;;;;;;;16.12;9.15;;;;;;;8.92;63.89;98649.91;4373033;32;34434;-88
2023/04/26 04:16:37;;;;;;;13.13;9.40;;;;;;;8.87;64.20;98650.72;4369267;32;34421;-85
2023/04/26 04:19:05;;;;;;;13.57;9.65;;;;;;;8.57;64.68;98661.56;4369970;32;33626;-84
2023/04/26 04:21:32;;;;;;;13.38;10.15;;;;;;;8.46;65.39;98664.88;4363295;32;34987;-83
2023/04/26 04:24:00;;;;;;;12.18;9.40;;;;;;;8.70;64.83;98673.78;4374959;32;33819;-90
2023/04/26 04:26:28;;;;;;;13.43;9.90;;;;;;;8.95;63.74;98670.62;4374252;32;33837;-83
2023/04/26 04:28:56;;;;;;;13.18;9.55;;;;;;;8.92;64.04;98673.19;4372731;32;33783;-83
2023/04/26 04:31:23;;;;;;;16.35;9.43;;;;;;;8.98;63.55;98686.19;4361759;32;34089;-85
2023/04/26 04:33:51;;;;;;;12.10;9.70;;;;;;;9.10;63.35;98682.87;4372197;32;34266;-93
2023/04/26 04:36:19;;;;;;;10.70;8.45;;;;;;;9.49;62.25;98684.13;4361641;32;34500;-82
2023/04/26 04:38:48;;;;;;;10.18;8.25;;;;;;;9.20;62.44;98679.50;4362280;32;34718;-92
2023/04/26 04:41:31;;;;;;;14.32;8.65;;;;;;;9.51;62.00;98687.59;4368793;32;32683;-84
2023/04/26 04:43:59;;;;;;;11.12;7.72;;;;;;;10.06;59.68;98692.34;4369978;32;34962;-87
2023/04/26 04:46:26;;;;;;;12.37;8.68;;;;;;;10.07;59.61;98694.94;4367972;32;34410;-83
2023/04/26 04:48:54;;;;;;;12.40;8.63;;;;;;;10.48;58.25;98694.38;4372459;32;34150;-82
2023/04/26 04:51:22;;;;;;;11.70;8.00;;;;;;;10.36;58.01;98694.31;4370414;32;33859;-81
2023/04/26 04:53:50;;;;;;;10.70;7.57;;;;;;;10.24;58.61;98703.69;4366500;32;34380;-88
2023/04/26 04:56:18;;;;;;;10.80;7.53;;;;;;;10.59;57.23;98710.84;4370166;32;34397;-96
2023/04/26 04:58:46;;;;;;;10.57;7.40;;;;;;;10.30;58.20;98707.22;4367122;32;34867;-89
2023/04/26 05:01:14;;;;;;;12.85;7.70;;;;;;;10.42;57.74;98707.31;4362956;32;34120;-85
2023/04/26 05:03:43;;;;;;;12.60;7.75;;;;;;;10.73;57.26;98715.25;4372717;32;33339;-87
2023/04/26 05:06:10;;;;;;;12.60;7.85;;;;;;;10.76;56.59;98708.34;4377083;32;34638;-85
2023/04/26 05:08:38;;;;;;;13.65;7.18;;;;;;;10.98;55.99;98714.47;4361935;32;34468;-96
2023/04/26 05:11:08;;;;;;;11.55;8.07;;;;;;;10.65;56.42;98716.06;4369929;32;33835;-84
2023/04/26 05:13:36;;;;;;;12.68;7.78;;;;;;;9.58;59.35;98723.00;4372720;32;33816;-96
2023/04/26 05:16:04;;;;;;;15.60;7.90;;;;;;;10.28;58.46;98727.06;4376749;32;33794;-85
2023/04/26 05:18:33;;;;;;;12.27;7.43;;;;;;;10.26;57.14;98734.81;4376771;32;33683;-92
2023/04/26 05:21:01;;;;;;;12.40;7.65;;;;;;;10.16;58.29;98727.81;4362618;32;35095;-85
2023/04/26 05:23:29;;;;;;;9.65;7.12;;;;;;;10.59;56.79;98733.31;4363105;32;34298;-87
2023/04/26 05:26:00;;;;;;;10.65;7.50;;;;;;;10.79;55.91;98730.81;4376668;32;33882;-84
2023/04/26 05:28:38;;;;;;;10.38;6.55;;;;;;;10.66;56.32;98735.94;4375761;32;33964;-84
2023/04/26 05:31:06;;;;;;;12.05;6.65;;;;;;;10.58;55.58;98735.03;4362189;32;34969;-94
2023/04/26 05:33:37;;;;;;;15.45;5.57;;;;;;;10.99;54.38;98730.94;4362443;32;33842;-84
2023/04/26 05:36:06;;;;;;;12.32;6.28;;;;;;;10.45;55.13;98734.13;4362149;32;33327;-84
2023/04/26 05:38:35;;;;;;;12.45;7.00;;;;;;;10.11;56.16;98742.44;4366221;32;33099;-83
2023/04/26 05:41:03;;;;;;;14.43;6.20;;;;;;;10.38;55.71;98739.22;4372720;32;34860;-84
2023/04/26 05:43:31;;;;;;;11.52;6.28;;;;;;;10.23;55.70;98735.66;4371440;32;34602;-84
2023/04/26 05:45:59;;;;;;;10.15;6.00;;;;;;;9.96;56.44;98735.41;4376840;32;34079;-96
2023/04/26 05:48:26;;;;;;;12.35;6.40;;;;;;;9.94;56.10;98734.56;4376785;32;33977;-83
2023/04/26 05:50:54;;;;;;;11.88;6.05;;;;;;;10.33;55.57;98736.59;4375638;32;34963;-82
2023/04/26 05:53:22;;;;;;;12.88;6.00;;;;;;;10.36;54.55;98735.75;4374629;32;34244;-84
2023/04/26 05:55:49;;;;;;;10.18;5.35;;;;;;;10.71;53.56;98741.16;4349719;32;33293;-85
2023/04/26 05:58:17;;;;;;;11.90;5.85;;;;;;;10.27;54.01;98734.00;4361352;32;33814;-92
2023/04/26 06:00:46;;;;;;;11.50;5.65;;;;;;;9.97;54.93;98738.03;4362101;32;34412;-95
2023/04/26 06:03:14;;;;;;;10.68;5.55;;;;;;;10.44;54.12;98744.44;4361485;32;34051;-95
2023/04/26 06:05:42;;;;;;;9.60;5.72;;;;;;;10.27;54.38;98743.50;4361320;32;34404;-86
2023/04/26 06:08:10;;;;;;;11.35;5.10;;;;;;;10.45;52.74;98748.78;4367855;32;34071;-83
2023/04/26 06:10:38;;;;;;;11.70;5.22;;;;;;;9.75;54.08;98749.06;4372409;32;34732;-90
2023/04/26 06:13:06;;;;;;;10.10;5.37;;;;;;;10.21;50.76;98750.31;4377176;32;34473;-83
2023/04/26 06:15:34;;;;;;;11.90;5.00;;;;;;;9.59;51.84;98758.41;4364886;32;33835;-84
2023/04/26 06:18:03;;;;;;;9.07;4.43;;;;;;;10.18;49.82;98745.09;4375696;32;34030;-85
2023/04/26 06:20:32;;;;;;;11.55;4.53;;;;;;;10.43;50.04;98747.91;4357955;32;35036;-91
2023/04/26 06:22:59;;;;;;;15.35;4.93;;;;;;;10.40;50.00;98740.09;4374866;32;35198;-91
2023/04/26 06:25:27;;;;;;;12.55;4.93;;;;;;;10.27;49.62;98754.72;4376178;32;34464;-90
2023/04/26 06:27:54;;;;;;;12.98;4.97;;;;;;;10.10;49.16;98745.91;4376074;32;34918;-82
2023/04/26 06:30:22;;;;;;;11.43;5.03;;;;;;;9.91;49.74;98750.94;4367939;32;35195;-85
2023/04/26 06:32:51;;;;;;;11.40;4.45;;;;;;;9.95;50.60;98746.62;4374982;32;34731;-83
2023/04/26 06:35:18;;;;;;;10.55;4.45;;;;;;;10.47;47.99;98747.06;4375894;32;34979;-79
2023/04/26 06:37:46;;;;;;;10.95;4.97;;;;;;;10.23;48.46;98732.19;4375024;32;34465;-89
2023/04/26 06:40:14;;;;;;;11.02;4.37;;;;;;;10.09;48.15;98745.03;4365069;32;35023;-87
2023/04/26 06:42:42;;;;;;;8.10;4.15;;;;;;;10.40;49.34;98755.66;4372021;32;33796;-87
2023/04/26 06:45:11;;;;;;;11.93;4.60;;;;;;;10.29;47.29;98754.72;4376326;32;34873;-92
2023/04/26 06:47:40;;;;;;;10.52;4.50;;;;;;;10.30;47.86;98743.47;4378585;32;34719;-84
2023/04/26 06:50:08;;;;;;;13.05;4.80;;;;;;;10.46;46.85;98756.56;4377346;32;34053;-93
2023/04/26 06:52:36;;;;;;;10.32;4.03;;;;;;;10.32;47.16;98752.16;4376293;32;34076;-84
2023/04/26 06:55:04;;;;;;;10.27;4.35;;;;;;;10.17;46.54;98769.28;4376208;32;33637;-83
2023/04/26 06:57:32;;;;;;;12.60;4.37;;;;;;;10.82;45.86;98754.19;4369115;32;226047;-85
2023/04/26 06:59:59;;;;;;;13.40;4.53;;;;;;;11.07;45.48;98748.25;4364763;32;34485;-83
2023/04/26 07:02:27;;;;;;;11.82;3.80;;;;;;;11.01;44.83;98748.22;4361680;32;35089;-96
2023/04/26 07:04:56;;;;;;;10.98;4.00;;;;;;;11.34;43.59;98759.59;4377560;32;33811;-83
2023/04/26 07:07:24;;;;;;;10.35;4.22;;;;;;;11.15;44.03;98759.53;4376997;32;33987;-94
2023/04/26 07:09:52;;;;;;;13.60;4.30;;;;;;;11.20;43.31;98756.94;4364277;32;34169;-86
2023/04/26 07:12:20;;;;;;;10.15;4.37;;;;;;;11.27;43.56;98757.84;4362925;32;33992;-78
2023/04/26 07:14:47;;;;;;;10.43;4.80;;;;;;;11.47;42.87;98771.72;4363464;32;33622;-87
2023/04/26 07:17:15;;;;;;;11.93;3.80;;;;;;;11.26;44.69;98761.28;4361996;32;34115;-85
2023/04/26 07:19:42;;;;;;;12.02;3.47;;;;;;;12.00;42.50;98760.59;4363737;32;33904;-83
2023/04/26 07:22:10;;;;;;;12.25;4.20;;;;;;;11.64;42.04;98766.59;4362937;32;33989;-84
2023/04/26 07:24:38;;;;;;;15.93;4.82;;;;;;;11.89;43.27;98765.81;4361269;32;33752;-84
2023/04/26 07:27:05;;;;;;;10.48;4.25;;;;;;;12.45;42.06;98764.03;4362474;32;33870;-91
2023/04/26 07:29:33;;;;;;;9.10;3.70;;;;;;;12.28;41.93;98778.81;4361528;32;35019;-94
2023/04/26 07:32:01;;;;;;;10.02;4.10;;;;;;;12.48;41.84;98781.37;4364287;32;33911;-84
2023/04/26 07:34:28;;;;;;;10.38;4.03;;;;;;;12.95;39.94;98776.06;4375678;32;34155;-83
2023/04/26 07:36:56;;;;;;;11.70;3.55;;;;;;;12.31;41.18;98773.56;4373313;32;33695;-84
2023/04/26 07:39:24;;;;;;;13.15;3.80;;;;;;;12.14;40.43;98777.06;4375458;32;34625;-95
2023/04/26 07:41:51;;;;;;;7.60;3.08;;;;;;;12.35;38.40;98785.72;4375848;32;33975;-89
2023/04/26 07:44:18;;;;;;;16.12;4.12;;;;;;;11.94;40.43;98781.37;4375839;32;34319;-95
2023/04/26 07:46:47;;;;;;;11.75;3.83;;;;;;;12.01;40.17;98785.72;4375018;32;33878;-83
2023/04/26 07:49:14;;;;;;;7.18;3.33;;;;;;;12.10;39.57;98782.25;4378355;32;33471;-84
2023/04/26 07:51:45;;;;;;;8.95;3.22;;;;;;;11.95;40.23;98788.31;4379392;32;34176;-94
2023/04/26 07:54:12;;;;;;;9.15;3.20;;;;;;;12.10;38.95;98793.50;4380539;32;33661;-95
2023/04/26 07:56:40;;;;;;;8.93;3.15;;;;;;;12.19;38.47;98784.84;4380179;32;33968;-82
2023/04/26 07:59:07;;;;;;;10.43;3.40;;;;;;;11.69;38.62;98791.69;4378848;32;34634;-82
2023/04/26 08:01:35;;;;;;;8.23;3.35;;;;;;;11.99;38.97;98791.78;4379580;32;34244;-91
2023/04/26 08:04:04;;;;;;;10.07;2.80;;;;;;;12.06;37.38;98791.78;4378401;32;34477;-94
2023/04/26 08:06:32;;;;;;;8.00;3.20;;;;;;;12.13;39.55;98800.47;4380170;32;34434;-91
2023/04/26 08:09:04;;;;;;;8.75;2.87;;;;;;;12.39;36.86;98800.47;4380579;32;33889;-83
2023/04/26 08:11:31;;;;;;;11.12;2.87;;;;;;;12.74;37.57;98802.16;4378927;32;34053;-83
2023/04/26 08:13:59;;;;;;;11.27;2.60;;;;;;;12.82;37.24;98808.19;4377802;32;33695;-83
2023/04/26 08:16:26;;;;;;;9.68;3.00;;;;;;;12.51;35.68;98802.19;4377834;32;33704;-82
2023/04/26 08:18:54;;;;;;;6.93;2.78;;;;;;;12.44;36.23;98809.12;4377604;32;35797;-82
2023/04/26 08:21:22;;;;;;;11.43;3.15;;;;;;;12.77;36.10;98820.37;4377586;32;35084;-83
2023/04/26 08:23:52;;;;;;;7.82;3.95;;;;;;;12.86;36.53;98816.00;4377668;32;33611;-82
2023/04/26 08:26:20;;;;;;;8.40;3.00;;;;;;;12.51;36.30;98817.78;4377362;32;33771;-96
2023/04/26 08:28:47;;;;;;;14.43;3.10;;;;;;;12.54;36.81;98818.66;4375272;32;34027;-81
2023/04/26 08:31:15;;;;;;;5.85;2.35;;;;;;;12.57;36.63;98818.63;4378392;32;34136;-96
2023/04/26 08:33:44;;;;;;;9.82;3.17;;;;;;;12.68;37.38;98834.22;4379943;32;33431;-95
2023/04/26 08:36:11;;;;;;;7.53;2.90;;;;;;;12.32;36.60;98816.94;4378676;32;34592;-88
2023/04/26 08:38:39;;;;;;;9.48;2.45;;;;;;;12.47;34.88;98805.66;4378441;32;34860;-85
2023/04/26 08:41:08;;;;;;;7.60;2.35;;;;;;;12.75;35.13;98822.94;4369862;32;34071;-83
2023/04/26 08:43:37;;;;;;;7.97;2.78;;;;;;;12.91;35.08;98828.97;4349142;32;34280;-83
2023/04/26 08:46:07;;;;;;;9.93;2.72;;;;;;;13.44;34.47;98833.19;4363035;32;34178;-82
2023/04/26 08:48:35;;;;;;;9.57;2.70;;;;;;;13.37;35.11;98834.09;4363088;32;34156;-78
2023/04/26 08:51:04;;;;;;;8.63;2.53;;;;;;;12.58;35.14;98830.78;4349976;32;34410;-84
2023/04/26 08:53:34;;;;;;;10.70;3.33;;;;;;;12.20;36.21;98833.38;4363943;32;33774;-86
2023/04/26 08:56:03;;;;;;;10.30;2.28;;;;;;;11.94;36.89;98833.34;4351286;32;34751;-81
2023/04/26 08:58:31;;;;;;;9.82;3.30;;;;;;;11.88;37.19;98838.50;4365110;32;34709;-92
2023/04/26 09:01:00;;;;;;;9.75;2.80;;;;;;;12.30;36.23;98831.62;4365918;32;34327;-83
2023/04/26 09:03:27;;;;;;;9.75;2.53;;;;;;;12.59;36.11;98845.50;4352262;32;34476;-83
2023/04/26 09:05:55;;;;;;;7.90;2.65;;;;;;;12.88;36.02;98849.81;4365279;32;33591;-87
2023/04/26 09:08:23;;;;;;;8.48;2.87;;;;;;;13.14;35.10;98832.41;4353267;32;34240;-87
2023/04/26 09:10:51;;;;;;;11.05;2.53;;;;;;;12.87;35.19;98841.13;4364794;32;34832;-82
2023/04/26 09:13:19;;;;;;;9.65;2.60;;;;;;;13.10;36.35;98838.47;4351752;32;33822;-83
2023/04/26 09:15:47;;;;;;;9.48;2.37;;;;;;;13.28;34.57;98837.59;4364503;32;34532;-83
2023/04/26 09:18:20;;;;;;;9.70;2.37;;;;;;;13.30;34.53;98832.41;4362883;32;34390;-83
2023/04/26 09:21:04;;;;;;;8.10;2.50;;;;;;;13.62;34.73;98829.66;4362135;32;34495;-82
2023/04/26 09:23:32;;;;;;;10.60;3.08;;;;;;;13.70;34.17;98832.22;4363104;32;33564;-83
2023/04/26 09:26:19;;;;;;;6.90;3.17;;;;;;;13.39;35.56;98827.16;4363372;32;33978;-92
2023/04/26 09:28:47;;;;;;;7.30;2.30;;;;;;;13.70;35.10;98832.22;4361551;32;34123;-81
2023/04/26 09:31:38;;;;;;;8.90;2.72;;;;;;;13.21;34.23;98832.38;4349479;32;34853;-83
2023/04/26 09:34:06;;;;;;;9.43;2.92;;;;;;;13.09;35.26;98835.87;4369437;32;34297;-82
2023/04/26 09:36:50;;;;;;;9.98;2.58;;;;;;;13.40;34.82;98836.69;4377326;32;34959;-82
2023/04/26 09:39:36;;;;;;;9.50;3.05;;;;;;;13.95;33.20;98826.00;4363595;32;33665;-81
2023/04/26 09:42:05;;;;;;;6.62;2.75;;;;;;;13.41;32.99;98838.44;4377080;32;34472;-94
2023/04/26 09:44:32;;;;;;;9.20;2.12;;;;;;;13.76;32.51;98830.44;4377590;32;34407;-83
2023/04/26 09:47:04;;;;;;;8.05;2.40;;;;;;;13.99;32.30;98832.06;4375727;32;33853;-80
2023/04/26 09:49:41;;;;;;;6.35;2.58;;;;;;;14.08;32.87;98829.38;4377067;32;34435;-80
2023/04/26 09:52:09;;;;;;;6.03;2.05;;;;;;;14.25;32.29;98824.06;4377283;32;34943;-83
2023/04/26 09:54:42;;;;;;;8.43;2.10;;;;;;;13.75;31.26;98826.13;4375742;32;34092;-79
2023/04/26 09:57:14;;;;;;;7.03;2.28;;;;;;;13.54;33.56;98821.88;4375941;32;34304;-83
2023/04/26 09:59:46;;;;;;;7.30;2.10;;;;;;;13.75;32.51;98846.06;4373132;32;33995;-88
2023/04/26 10:02:21;;;;;;;8.70;2.25;;;;;;;13.84;31.74;98828.66;4378731;32;34236;-87
2023/04/26 10:04:51;;;;;;;6.85;2.53;;;;;;;13.38;32.62;98838.44;4378347;32;33356;-83
2023/04/26 10:07:20;;;;;;;9.25;2.37;;;;;;;13.45;33.85;98847.06;4364909;32;33736;-96
2023/04/26 10:09:49;;;;;;;5.90;2.42;;;;;;;13.06;33.20;98849.75;4378888;32;33912;-91
2023/04/26 10:12:17;;;;;;;6.32;2.50;;;;;;;13.36;33.08;98848.84;4377593;32;34373;-82
2023/04/26 10:14:45;;;;;;;6.55;2.65;;;;;;;13.34;33.30;98837.59;4378418;32;33727;-83
2023/04/26 10:17:13;;;;;;;10.77;2.62;;;;;;;13.87;32.55;98825.19;4377819;32;33924;-78
2023/04/26 10:19:45;;;;;;;6.10;2.30;;;;;;;13.56;33.79;98860.91;4377603;32;34297;-83
2023/04/26 10:22:20;;;;;;;9.45;2.90;;;;;;;13.53;32.83;98853.13;4372576;32;34904;-83
2023/04/26 10:24:49;;;;;;;6.10;2.30;;;;;;;13.48;32.60;98852.28;4349068;32;33552;-83
2023/04/26 10:27:42;;;;;;;9.60;2.75;;;;;;;13.30;33.04;98850.63;4348481;32;33890;-95
2023/04/26 10:30:14;;;;;;;9.32;2.67;;;;;;;13.06;34.63;98839.34;4362707;32;34968;-96
2023/04/26 10:33:07;;;;;;;8.88;2.47;;;;;;;14.27;32.45;98835.31;4361716;32;34874;-85
2023/04/26 10:35:36;;;;;;;7.53;2.70;;;;;;;14.38;32.38;98827.41;4352020;32;33949;-83
2023/04/26 10:38:04;;;;;;;6.55;2.53;;;;;;;13.47;32.76;98845.34;4361470;32;34755;-82
2023/04/26 10:40:41;;;;;;;5.72;2.25;;;;;;;13.73;32.67;98845.22;4374310;32;34224;-83
2023/04/26 10:43:15;;;;;;;7.25;2.30;;;;;;;13.85;32.75;98852.97;4375723;32;34266;-94
2023/04/26 10:45:43;;;;;;;6.80;3.17;;;;;;;13.27;32.41;98846.28;4376157;32;34254;-83
2023/04/26 10:48:17;;;;;;;8.32;2.50;;;;;;;13.28;34.12;98841.94;4363490;32;34618;-94
2023/04/26 10:51:00;;;;;;;5.03;2.08;;;;;;;13.49;33.57;98854.88;4381963;32;34087;-96
2023/04/26 10:53:29;;;;;;;6.35;2.10;;;;;;;13.80;31.79;98833.91;4378357;32;33499;-96
2023/04/26 10:55:57;;;;;;;5.20;2.37;;;;;;;13.31;33.39;98848.00;4378790;32;33966;-83
2023/04/26 10:58:32;;;;;;;6.78;2.28;;;;;;;13.43;34.21;98848.84;4381634;32;34152;-91
2023/04/26 11:01:10;;;;;;;6.10;2.20;;;;;;;13.43;32.53;98849.69;4381420;32;34125;-96
2023/04/26 11:03:39;;;;;;;5.03;1.75;;;;;;;13.52;30.00;98851.38;4382089;32;34409;-95
2023/04/26 11:06:14;;;;;;;6.37;2.03;;;;;;;13.86;29.66;98839.06;4379939;32;33828;-88
2023/04/26 11:08:42;;;;;;;6.70;2.15;;;;;;;13.08;30.58;98837.63;4379463;32;33657;-84
2023/04/26 11:11:10;;;;;;;4.90;2.03;;;;;;;13.51;30.62;98844.44;4374035;32;34408;-83
2023/04/26 11:13:40;;;;;;;5.93;1.98;;;;;;;12.87;32.03;98832.47;4375760;32;34216;-83
2023/04/26 11:16:12;;;;;;;6.93;2.10;;;;;;;13.43;31.20;98833.22;4361975;32;33240;-83
2023/04/26 11:18:42;;;;;;;4.97;1.75;;;;;;;13.62;32.00;98840.94;4362631;32;33876;-83
2023/04/26 11:21:10;;;;;;;6.40;1.80;;;;;;;13.63;31.89;98836.56;4359306;32;33916;-85
2023/04/26 11:23:38;;;;;;;5.75;1.98;;;;;;;13.88;30.27;98826.91;4377440;32;34263;-96
2023/04/26 11:26:07;;;;;;;5.82;2.08;;;;;;;14.10;30.79;98836.31;4361909;32;33668;-89
2023/04/26 11:28:37;;;;;;;5.15;1.75;;;;;;;14.12;30.83;98829.34;4380903;32;34302;-79
2023/04/26 11:31:06;;;;;;;4.75;1.80;;;;;;;13.93;31.11;98829.47;4381043;32;33847;-94
2023/04/26 11:33:34;;;;;;;5.87;2.00;;;;;;;14.06;32.28;98841.56;4381821;32;33385;-82
2023/04/26 11:36:02;;;;;;;7.35;1.70;;;;;;;14.25;32.90;98843.16;4366721;32;33973;-96
2023/04/26 11:38:30;;;;;;;5.55;1.90;;;;;;;14.36;31.99;98845.69;4381303;32;34272;-96
2023/04/26 11:41:00;;;;;;;8.32;1.65;;;;;;;14.75;28.74;98834.09;4378618;32;33824;-86